Time;durP1;ratioP1;P1;durP2;ratioP2;P2;SDS_P1;SDS_P2;PMS_P1;PMS_P2;Temp;Humidity;BMP_temperature;BMP_pressure;BME280_temperature;BME280_humidity;BME280_pressure;Samples;Min_cycle;Max_cycle;Signal;HPM_P1;HPM_P2
2024/04/20 00:00:34;;;;;;;3.85;2.17;;;;;;;10.78;44.74;93104.31;5541676;26;19981;-78
2024/04/20 00:02:59;;;;;;;3.10;1.50;;;;;;;10.76;44.79;93109.97;5542163;25;19981;-77
2024/04/20 00:05:24;;;;;;;2.80;1.67;;;;;;;10.68;44.73;93097.50;5541816;25;20211;-77
2024/04/20 00:07:50;;;;;;;2.35;1.20;;;;;;;10.69;44.91;93096.41;5542049;25;19985;-77
2024/04/20 00:10:17;;;;;;;2.95;1.70;;;;;;;10.68;45.02;93091.41;5541479;25;20200;-77
2024/04/20 00:12:43;;;;;;;2.60;1.60;;;;;;;10.69;44.57;93085.75;5541790;26;20249;-77
2024/04/20 00:15:09;;;;;;;3.50;1.70;;;;;;;10.72;44.19;93085.06;5541821;25;19998;-76
2024/04/20 00:17:36;;;;;;;3.38;1.50;;;;;;;10.69;44.29;93083.09;5541610;26;19985;-77
2024/04/20 00:20:05;;;;;;;5.97;1.27;;;;;;;10.68;44.27;93083.41;5541989;26;19996;-77
2024/04/20 00:22:31;;;;;;;4.20;1.58;;;;;;;10.63;44.34;93079.88;5541348;25;20423;-77
2024/04/20 00:24:56;;;;;;;2.38;1.52;;;;;;;10.59;44.53;93078.19;5541302;26;19989;-76
2024/04/20 00:27:21;;;;;;;2.78;1.60;;;;;;;10.53;44.56;93077.63;5541497;25;20105;-77
2024/04/20 00:29:47;;;;;;;3.70;1.77;;;;;;;10.40;44.85;93068.06;5541654;26;19997;-77
2024/04/20 00:32:12;;;;;;;4.93;1.80;;;;;;;10.34;45.03;93070.19;5541336;26;19993;-77
2024/04/20 00:34:38;;;;;;;7.07;1.88;;;;;;;10.30;45.14;93068.47;5541728;26;19986;-77
2024/04/20 00:37:05;;;;;;;4.15;1.70;;;;;;;10.24;45.75;93067.91;5541330;26;20017;-75
2024/04/20 00:39:30;;;;;;;3.60;2.05;;;;;;;10.21;46.09;93071.97;5541410;25;20045;-78
2024/04/20 00:41:55;;;;;;;2.97;1.63;;;;;;;10.24;46.66;93070.56;5541274;26;20017;-76
2024/04/20 00:44:21;;;;;;;3.47;1.92;;;;;;;10.21;47.73;93065.88;5541393;26;20200;-77
2024/04/20 00:46:54;;;;;;;4.45;1.58;;;;;;;10.26;47.90;93076.34;5540976;26;19997;-77
2024/04/20 00:49:21;;;;;;;2.60;1.50;;;;;;;10.18;48.50;93069.22;5541551;26;19985;-77
2024/04/20 00:51:48;;;;;;;3.85;2.00;;;;;;;10.18;49.20;93064.66;5541360;26;20138;-77
2024/04/20 00:54:14;;;;;;;3.10;1.85;;;;;;;10.18;49.96;93077.22;5541286;26;19997;-77
2024/04/20 00:56:41;;;;;;;5.68;1.83;;;;;;;10.11;50.62;93075.06;5541341;26;19992;-77
2024/04/20 00:59:07;;;;;;;4.15;1.75;;;;;;;10.12;51.24;93081.19;5541521;26;20030;-77
2024/04/20 01:01:33;;;;;;;2.80;1.80;;;;;;;10.13;51.62;93078.19;5540901;26;20001;-77
2024/04/20 01:03:58;;;;;;;3.85;2.03;;;;;;;10.11;52.30;93091.03;5541385;25;20151;-77
2024/04/20 01:06:24;;;;;;;2.45;1.38;;;;;;;10.11;52.92;93087.59;5540874;26;19985;-78
2024/04/20 01:08:50;;;;;;;6.65;1.90;;;;;;;10.10;53.84;93083.41;5540991;26;19991;-77
2024/04/20 01:11:16;;;;;;;4.63;2.28;;;;;;;10.09;54.82;93074.63;5540852;25;19992;-77
2024/04/20 01:13:57;;;;;;;5.57;1.85;;;;;;;10.11;54.42;93077.72;5541109;25;20102;-77
2024/04/20 01:16:26;;;;;;;3.45;1.80;;;;;;;9.95;54.57;93077.59;5541116;25;19989;-77
2024/04/20 01:18:52;;;;;;;4.22;2.15;;;;;;;9.89;55.28;93084.22;5540659;26;19989;-77
2024/04/20 01:21:18;;;;;;;3.88;2.35;;;;;;;9.80;55.69;93078.94;5540646;26;19993;-78
2024/04/20 01:23:48;;;;;;;4.10;1.88;;;;;;;9.72;56.14;93085.13;5540986;26;20141;-77
2024/04/20 01:26:14;;;;;;;4.72;2.13;;;;;;;9.68;56.51;93078.91;5540934;25;19997;-77
2024/04/20 01:28:40;;;;;;;3.95;1.50;;;;;;;9.59;56.73;93080.88;5541090;26;19993;-77
2024/04/20 01:31:05;;;;;;;3.45;1.67;;;;;;;9.56;56.94;93079.63;5508865;25;20044;-78
2024/04/20 01:33:30;;;;;;;5.13;2.38;;;;;;;9.57;57.77;93080.41;5540497;26;19985;-78
2024/04/20 01:35:56;;;;;;;5.22;2.00;;;;;;;9.59;58.32;93076.31;5540739;25;19986;-77
2024/04/20 01:38:21;;;;;;;5.05;2.22;;;;;;;9.60;59.67;93077.09;5540793;26;20050;-78
2024/04/20 01:40:46;;;;;;;3.80;2.10;;;;;;;9.65;60.24;93079.56;5540358;25;20158;-77
2024/04/20 01:43:12;;;;;;;4.60;1.90;;;;;;;9.62;59.68;93069.56;5540256;25;20217;-77
2024/04/20 01:45:37;;;;;;;3.75;2.28;;;;;;;9.55;58.87;93080.72;5540702;25;19993;-77
2024/04/20 01:48:03;;;;;;;4.25;2.00;;;;;;;9.55;58.89;93085.28;5540382;26;19995;-77
2024/04/20 01:50:29;;;;;;;3.15;1.80;;;;;;;9.55;59.45;93069.31;5540215;26;20034;-77
2024/04/20 01:52:54;;;;;;;3.45;2.17;;;;;;;9.48;59.22;93075.13;5540209;26;20204;-77
2024/04/20 01:55:20;;;;;;;4.22;1.70;;;;;;;9.44;59.67;93068.91;5540184;26;19998;-77
2024/04/20 01:57:45;;;;;;;8.80;2.40;;;;;;;9.42;59.57;93060.47;5540522;26;19986;-77
2024/04/20 02:00:11;;;;;;;4.65;2.70;;;;;;;9.40;59.28;93057.38;5508708;26;20041;-77
2024/04/20 02:02:37;;;;;;;4.25;2.65;;;;;;;9.39;59.64;93064.56;5540373;25;20196;-76
2024/04/20 02:05:02;;;;;;;3.83;2.60;;;;;;;9.39;58.97;93064.56;5539268;26;20204;-76
2024/04/20 02:07:28;;;;;;;4.72;2.47;;;;;;;9.38;58.88;93065.69;5537701;25;19997;-77
2024/04/20 02:09:54;;;;;;;4.82;2.58;;;;;;;9.39;58.87;93064.56;5538203;26;19989;-77
2024/04/20 02:12:19;;;;;;;4.57;2.33;;;;;;;9.43;59.28;93070.81;5538764;26;20211;-76
2024/04/20 02:14:44;;;;;;;16.17;2.42;;;;;;;9.46;59.45;93061.38;5539766;25;20101;-76
2024/04/20 02:17:10;;;;;;;4.22;2.35;;;;;;;9.47;59.14;93068.28;5540427;26;20014;-76
2024/04/20 02:19:35;;;;;;;4.10;2.03;;;;;;;9.37;58.02;93066.78;5539340;25;20063;-77
2024/04/20 02:22:00;;;;;;;3.53;2.40;;;;;;;9.38;57.81;93070.22;5539582;25;20145;-77
2024/04/20 02:24:26;;;;;;;4.82;2.33;;;;;;;9.30;57.98;93066.53;5539781;26;19989;-77
2024/04/20 02:26:51;;;;;;;4.25;2.03;;;;;;;9.41;57.53;93072.25;5539782;26;20121;-76
2024/04/20 02:29:17;;;;;;;4.72;2.10;;;;;;;9.47;56.65;93073.59;5540000;25;20042;-77
2024/04/20 02:31:42;;;;;;;4.60;2.75;;;;;;;9.39;56.21;93072.56;5539796;26;19986;-76
2024/04/20 02:34:08;;;;;;;3.97;2.10;;;;;;;9.41;55.84;93077.56;5539826;25;20012;-76
2024/04/20 02:36:34;;;;;;;4.70;2.22;;;;;;;9.48;55.88;93074.38;5539538;25;20231;-76
2024/04/20 02:39:00;;;;;;;3.80;2.28;;;;;;;9.51;54.88;93076.41;5539645;26;20137;-76
2024/04/20 02:41:25;;;;;;;3.80;2.17;;;;;;;9.50;55.01;93080.91;5539666;26;19989;-76
2024/04/20 02:43:51;;;;;;;4.47;2.15;;;;;;;9.56;55.35;93076.97;5539554;26;19985;-77
2024/04/20 02:46:16;;;;;;;3.58;2.45;;;;;;;9.57;55.11;93088.41;5539205;25;19982;-77
2024/04/20 02:48:42;;;;;;;5.53;2.40;;;;;;;9.59;55.21;93089.63;5539677;26;20025;-78
2024/04/20 02:51:08;;;;;;;4.07;2.38;;;;;;;9.60;55.17;93088.50;5540152;26;20092;-77
2024/04/20 02:53:33;;;;;;;8.95;2.35;;;;;;;9.60;55.21;93095.72;5539959;25;19985;-78
2024/04/20 02:55:59;;;;;;;9.52;2.55;;;;;;;9.61;55.28;93095.41;5539678;26;20017;-78
2024/04/20 02:58:25;;;;;;;3.22;2.17;;;;;;;9.66;55.23;93096.31;5539373;25;20096;-78
2024/04/20 03:00:58;;;;;;;4.28;2.50;;;;;;;9.68;55.33;93094.09;5539510;25;20001;-77
2024/04/20 03:03:29;;;;;;;4.80;2.42;;;;;;;9.65;55.03;93100.84;5539647;25;20088;-77
2024/04/20 03:05:54;;;;;;;4.95;2.95;;;;;;;9.64;55.48;93109.91;5539532;25;20068;-78
2024/04/20 03:08:19;;;;;;;4.35;2.40;;;;;;;9.60;55.91;93103.69;5539308;25;20013;-77
2024/04/20 03:10:45;;;;;;;5.03;2.92;;;;;;;9.59;56.25;93102.94;5538964;25;19985;-76
2024/04/20 03:13:12;;;;;;;5.43;2.50;;;;;;;9.64;56.25;93104.59;5539850;26;19993;-77
2024/04/20 03:15:38;;;;;;;5.13;2.70;;;;;;;9.69;55.48;93112.41;5539319;25;19994;-77
2024/04/20 03:18:03;;;;;;;3.97;2.63;;;;;;;9.68;55.92;93112.72;5539082;25;19989;-77
2024/04/20 03:20:29;;;;;;;3.85;2.58;;;;;;;9.69;55.87;93115.06;5538712;25;20093;-76
2024/04/20 03:22:54;;;;;;;4.38;3.15;;;;;;;9.62;56.43;93117.44;5538779;25;19989;-76
2024/04/20 03:25:20;;;;;;;6.65;3.25;;;;;;;9.55;56.32;93122.53;5538935;25;20202;-76
2024/04/20 03:27:46;;;;;;;4.80;2.72;;;;;;;9.48;57.24;93122.25;5538551;26;20000;-76
2024/04/20 03:30:11;;;;;;;4.05;2.63;;;;;;;9.33;58.06;93126.25;5538561;26;19981;-75
2024/04/20 03:32:37;;;;;;;5.15;2.97;;;;;;;9.18;58.76;93125.72;5540555;26;19981;-76
2024/04/20 03:35:06;;;;;;;11.13;3.20;;;;;;;9.06;59.23;93117.66;5542694;25;19985;-76
2024/04/20 03:37:32;;;;;;;5.78;3.03;;;;;;;8.99;59.47;93120.81;5542205;25;20085;-76
2024/04/20 03:39:58;;;;;;;5.95;3.45;;;;;;;8.82;60.07;93121.66;5542049;25;20048;-76
2024/04/20 03:42:24;;;;;;;7.15;4.18;;;;;;;8.72;60.74;93121.25;5541853;25;19982;-76
2024/04/20 03:44:49;;;;;;;7.03;3.60;;;;;;;8.65;60.90;93124.41;5541856;26;19989;-76
2024/04/20 03:47:15;;;;;;;7.03;3.80;;;;;;;8.58;60.63;93126.78;5510016;26;19986;-76
2024/04/20 03:49:41;;;;;;;6.03;3.20;;;;;;;8.47;60.26;93133.50;5542257;26;20017;-77
2024/04/20 03:52:06;;;;;;;5.60;3.60;;;;;;;8.40;60.68;93133.97;5542151;25;19993;-77
2024/04/20 03:54:32;;;;;;;13.05;4.20;;;;;;;8.35;60.59;93129.63;5541773;25;20207;-77
2024/04/20 03:56:57;;;;;;;7.07;4.13;;;;;;;8.33;61.02;93139.00;5542031;25;20046;-77
2024/04/20 03:59:22;;;;;;;6.38;3.80;;;;;;;8.36;61.20;93141.00;5541523;26;19989;-76
2024/04/20 04:01:48;;;;;;;7.10;3.95;;;;;;;8.33;59.45;93141.66;5541622;25;19991;-76
2024/04/20 04:04:13;;;;;;;8.45;4.68;;;;;;;8.28;59.29;93133.84;5541458;26;19981;-76
2024/04/20 04:06:38;;;;;;;7.22;4.00;;;;;;;8.29;59.32;93148.69;5541810;25;19981;-77
2024/04/20 04:09:04;;;;;;;6.20;3.72;;;;;;;8.18;58.75;93145.56;5510131;26;20102;-77
2024/04/20 04:11:29;;;;;;;6.47;4.28;;;;;;;8.23;58.99;93140.09;5541537;25;19989;-76
2024/04/20 04:13:55;;;;;;;6.95;3.67;;;;;;;8.25;58.62;93151.19;5541406;25;19996;-76
2024/04/20 04:16:20;;;;;;;8.77;3.70;;;;;;;8.28;57.97;93152.44;5541397;26;19981;-76
2024/04/20 04:18:46;;;;;;;6.97;4.32;;;;;;;8.32;57.83;93142.75;5541350;26;20181;-76
2024/04/20 04:21:12;;;;;;;10.38;5.13;;;;;;;8.35;58.30;93153.50;5509484;26;20013;-77
2024/04/20 04:23:37;;;;;;;6.72;4.43;;;;;;;8.42;59.25;93150.41;5541197;25;20034;-76
2024/04/20 04:26:03;;;;;;;6.07;3.95;;;;;;;8.47;59.18;93155.56;5541557;26;19997;-77
2024/04/20 04:28:30;;;;;;;8.05;4.43;;;;;;;8.49;58.53;93150.72;5541249;26;20208;-76
2024/04/20 04:30:55;;;;;;;6.57;4.00;;;;;;;8.50;58.78;93157.56;5541142;25;19981;-76
2024/04/20 04:33:21;;;;;;;6.30;4.07;;;;;;;8.50;59.24;93148.81;5541169;25;19993;-76
2024/04/20 04:35:46;;;;;;;7.57;4.47;;;;;;;8.47;59.58;93144.94;5540920;25;19996;-76
2024/04/20 04:38:11;;;;;;;7.32;4.00;;;;;;;8.49;59.29;93150.72;5541023;25;19989;-76
2024/04/20 04:40:37;;;;;;;7.68;4.20;;;;;;;8.45;59.29;93141.81;5541729;25;20009;-75
2024/04/20 04:43:02;;;;;;;8.45;3.88;;;;;;;8.47;59.82;93144.94;5540195;25;20036;-77
2024/04/20 04:45:29;;;;;;;6.85;4.47;;;;;;;8.43;59.08;93136.81;5540657;26;20205;-77
2024/04/20 04:47:55;;;;;;;7.88;4.55;;;;;;;8.36;59.45;93141.00;5540395;25;19982;-76
2024/04/20 04:50:20;;;;;;;7.07;4.50;;;;;;;8.37;59.86;93135.38;5509149;26;20036;-76
2024/04/20 04:52:45;;;;;;;9.38;4.80;;;;;;;8.43;59.77;93146.66;5540868;26;20013;-76
2024/04/20 04:55:11;;;;;;;8.98;4.95;;;;;;;8.43;60.08;93147.44;5540927;25;19990;-76
2024/04/20 04:57:36;;;;;;;9.55;5.20;;;;;;;8.46;59.28;93153.22;5540938;26;19992;-76
2024/04/20 05:00:02;;;;;;;7.97;4.45;;;;;;;8.39;58.87;93153.66;5540716;26;20199;-76
2024/04/20 05:02:27;;;;;;;9.35;5.20;;;;;;;8.35;58.73;93153.50;5540410;25;19989;-76
2024/04/20 05:04:53;;;;;;;13.95;5.25;;;;;;;8.37;58.81;93155.88;5540552;26;19997;-76
2024/04/20 05:07:18;;;;;;;8.60;4.70;;;;;;;8.39;59.38;93158.97;5540482;25;20117;-76
2024/04/20 05:09:44;;;;;;;8.15;4.93;;;;;;;8.43;58.84;93151.97;5540312;25;19985;-77
2024/04/20 05:12:09;;;;;;;9.32;4.80;;;;;;;8.47;58.13;93149.44;5540281;25;20006;-77
2024/04/20 05:14:34;;;;;;;6.32;4.10;;;;;;;8.55;58.09;93152.09;5508562;26;20118;-76
2024/04/20 05:17:00;;;;;;;8.60;4.45;;;;;;;8.56;58.05;93148.34;5540524;26;20001;-76
2024/04/20 05:19:25;;;;;;;11.85;5.40;;;;;;;8.64;57.82;93142.22;5540365;25;19989;-76
2024/04/20 05:21:51;;;;;;;8.13;5.00;;;;;;;8.64;57.31;93141.44;5540422;26;20204;-77
2024/04/20 05:24:17;;;;;;;8.20;4.78;;;;;;;8.78;56.37;93143.91;5540221;25;20019;-77
2024/04/20 05:26:42;;;;;;;12.07;4.97;;;;;;;8.97;56.98;93135.53;5540424;25;19989;-76
2024/04/20 05:29:08;;;;;;;7.88;4.18;;;;;;;9.11;56.06;93133.41;5540410;25;19986;-76
2024/04/20 05:31:33;;;;;;;9.38;4.03;;;;;;;9.24;54.56;93132.41;5540294;25;20005;-77
2024/04/20 05:33:58;;;;;;;8.35;3.78;;;;;;;9.38;54.18;93134.84;5540057;25;19981;-76
2024/04/20 05:36:24;;;;;;;8.48;3.85;;;;;;;9.60;53.86;93124.97;5540323;26;19982;-77
2024/04/20 05:38:49;;;;;;;4.82;3.28;;;;;;;9.77;52.33;93132.03;5540359;25;20237;-77
2024/04/20 05:41:15;;;;;;;7.07;3.70;;;;;;;9.89;52.19;93126.00;5539978;26;20013;-77
2024/04/20 05:43:40;;;;;;;6.70;3.47;;;;;;;10.01;51.52;93136.72;5540446;25;20010;-77
2024/04/20 05:46:05;;;;;;;6.10;3.92;;;;;;;10.18;51.33;93135.78;5540093;26;20224;-77
2024/04/20 05:48:33;;;;;;;7.50;3.42;;;;;;;10.35;50.11;93129.53;5540309;25;19982;-77
2024/04/20 05:50:58;;;;;;;6.68;3.78;;;;;;;10.48;49.55;93127.69;5540198;26;19992;-78
2024/04/20 05:53:24;;;;;;;7.18;2.92;;;;;;;10.54;49.46;93116.50;5540062;25;19986;-77
2024/04/20 05:55:49;;;;;;;5.95;3.67;;;;;;;10.59;49.39;93112.84;5539054;25;20005;-77
2024/04/20 05:58:15;;;;;;;4.93;3.30;;;;;;;10.61;49.18;93114.06;5508666;26;20092;-77
2024/04/20 06:00:41;;;;;;;8.02;3.10;;;;;;;10.62;49.14;93115.63;5540354;26;20026;-78
2024/04/20 06:03:10;;;;;;;5.20;3.03;;;;;;;10.69;48.88;93120.41;5540576;25;20038;-78
2024/04/20 06:05:35;;;;;;;14.00;3.47;;;;;;;10.74;47.87;93117.50;5539817;25;20017;-77
2024/04/20 06:08:00;;;;;;;5.78;3.35;;;;;;;10.80;48.34;93113.53;5539858;25;20203;-77
2024/04/20 06:10:26;;;;;;;5.93;3.25;;;;;;;10.81;50.33;93122.31;5539590;25;20221;-80
2024/04/20 06:12:51;;;;;;;6.38;3.53;;;;;;;10.86;54.85;93119.41;5540038;25;20061;-78
2024/04/20 06:15:17;;;;;;;6.72;3.25;;;;;;;10.92;51.47;93122.66;5539673;25;19982;-80
2024/04/20 06:17:42;;;;;;;6.65;3.55;;;;;;;10.94;51.23;93120.44;5539333;26;19993;-79
2024/04/20 06:20:08;;;;;;;5.05;2.92;;;;;;;10.96;51.09;93124.31;5507758;26;20007;-79
2024/04/20 06:22:33;;;;;;;5.90;3.50;;;;;;;11.01;50.59;93126.78;5507477;26;19981;-79
2024/04/20 06:25:00;;;;;;;9.20;3.90;;;;;;;11.02;51.26;93124.88;5538791;26;20184;-79
2024/04/20 06:27:25;;;;;;;5.28;3.05;;;;;;;11.11;50.94;93125.53;5507220;26;19988;-79
2024/04/20 06:29:50;;;;;;;8.52;4.00;;;;;;;11.15;50.86;93115.75;5539196;26;19997;-79
2024/04/20 06:32:16;;;;;;;7.10;3.20;;;;;;;11.22;50.15;93120.53;5539101;26;20073;-80
2024/04/20 06:34:43;;;;;;;6.53;3.45;;;;;;;11.27;49.38;93120.31;5539098;26;19989;-79
2024/04/20 06:37:09;;;;;;;6.55;3.72;;;;;;;11.40;48.16;93132.53;5539354;25;19981;-80
2024/04/20 06:39:35;;;;;;;9.88;4.13;;;;;;;11.43;47.06;93131.06;5539103;26;19982;-79
2024/04/20 06:42:01;;;;;;;8.35;4.13;;;;;;;11.47;48.03;93131.19;5538975;26;20284;-81
2024/04/20 06:44:26;;;;;;;6.60;3.42;;;;;;;11.50;49.21;93119.81;5539301;25;19986;-80
2024/04/20 06:46:55;;;;;;;7.38;3.45;;;;;;;11.51;47.87;93132.84;5538912;26;19985;-81
2024/04/20 06:49:20;;;;;;;7.70;3.25;;;;;;;11.53;47.56;93125.28;5539044;25;19993;-78
2024/04/20 06:51:46;;;;;;;10.00;3.53;;;;;;;11.52;47.31;93122.94;5538877;25;19989;-80
2024/04/20 06:54:11;;;;;;;7.03;4.10;;;;;;;11.61;48.34;93123.59;5538805;26;19981;-77
2024/04/20 06:56:37;;;;;;;7.03;3.35;;;;;;;11.73;47.92;93128.91;5538755;26;19985;-77
2024/04/20 06:59:02;;;;;;;6.35;3.50;;;;;;;11.83;47.31;93128.44;5538527;26;19993;-77
2024/04/20 07:01:30;;;;;;;7.78;3.40;;;;;;;11.95;47.71;93125.00;5538222;26;20001;-77
2024/04/20 07:03:56;;;;;;;8.77;3.53;;;;;;;12.09;47.43;93129.16;5538856;25;19990;-81
2024/04/20 07:06:21;;;;;;;9.77;4.50;;;;;;;12.25;46.51;93124.63;5538089;25;20073;-79
2024/04/20 07:08:50;;;;;;;10.48;4.13;;;;;;;12.35;45.60;93134.06;5538913;25;20207;-79
2024/04/20 07:11:15;;;;;;;9.35;3.22;;;;;;;12.43;44.43;93127.78;5538704;25;19985;-79
2024/04/20 07:13:41;;;;;;;7.10;3.63;;;;;;;12.60;46.22;93146.19;5538019;25;19992;-79
2024/04/20 07:16:07;;;;;;;9.57;2.88;;;;;;;12.76;44.20;93145.41;5538457;26;20207;-78
2024/04/20 07:18:33;;;;;;;12.00;3.95;;;;;;;12.86;44.92;93147.59;5538247;26;20015;-80
2024/04/20 07:21:08;;;;;;;7.78;3.63;;;;;;;12.94;44.53;93140.53;5538340;26;20001;-78
2024/04/20 07:23:34;;;;;;;8.15;3.40;;;;;;;13.03;42.58;93138.47;5538150;25;20125;-80
2024/04/20 07:26:03;;;;;;;6.60;3.38;;;;;;;13.03;42.12;93141.91;5506445;26;19992;-77
2024/04/20 07:28:29;;;;;;;9.45;3.10;;;;;;;13.09;43.21;93144.31;5538259;26;20018;-78
2024/04/20 07:30:55;;;;;;;6.38;3.80;;;;;;;13.17;42.75;93143.38;5538514;26;19981;-82
2024/04/20 07:33:20;;;;;;;7.75;3.65;;;;;;;13.26;43.24;93152.00;5537831;25;19982;-83
2024/04/20 07:35:46;;;;;;;7.45;3.40;;;;;;;13.32;43.31;93147.19;5538652;26;19996;-81
2024/04/20 07:38:14;;;;;;;9.98;4.45;;;;;;;13.37;43.38;93147.72;5537920;26;20077;-76
2024/04/20 07:40:40;;;;;;;7.38;3.72;;;;;;;13.39;42.56;93145.47;5538173;25;19993;-76
2024/04/20 07:43:11;;;;;;;9.45;3.33;;;;;;;13.43;43.31;93140.97;5537227;25;20084;-76
2024/04/20 07:45:39;;;;;;;6.35;3.10;;;;;;;13.44;42.93;93142.50;5537713;25;19996;-76
2024/04/20 07:48:08;;;;;;;5.88;3.30;;;;;;;13.50;43.56;93132.31;5537606;25;19998;-76
2024/04/20 07:50:33;;;;;;;7.30;3.58;;;;;;;13.49;43.83;93138.00;5537495;25;19981;-76
2024/04/20 07:52:59;;;;;;;8.07;3.53;;;;;;;13.53;43.48;93125.47;5506013;26;19992;-76
2024/04/20 07:55:25;;;;;;;14.48;3.35;;;;;;;13.55;43.39;93132.03;5537334;25;19985;-75
2024/04/20 07:57:50;;;;;;;6.18;2.83;;;;;;;13.52;43.06;93132.75;5537404;26;19988;-76
2024/04/20 08:00:16;;;;;;;4.80;2.70;;;;;;;13.54;41.98;93135.84;5537869;25;19988;-76
2024/04/20 08:02:43;;;;;;;7.03;2.88;;;;;;;13.54;41.06;93135.84;5537734;25;19997;-76
2024/04/20 08:05:09;;;;;;;9.35;3.83;;;;;;;13.52;41.03;93135.41;5537461;25;20196;-75
2024/04/20 08:07:34;;;;;;;5.05;2.80;;;;;;;13.57;41.95;93135.13;5537583;26;20042;-76
2024/04/20 08:09:59;;;;;;;9.45;3.25;;;;;;;13.56;41.59;93132.81;5537446;25;20072;-76
2024/04/20 08:12:25;;;;;;;6.35;2.80;;;;;;;13.68;40.52;93134.59;5537186;26;19982;-75
2024/04/20 08:14:50;;;;;;;8.00;2.85;;;;;;;13.81;41.02;93136.81;5537640;25;20221;-76
2024/04/20 08:17:16;;;;;;;7.43;3.40;;;;;;;13.95;40.79;93132.88;5537475;25;19989;-76
2024/04/20 08:19:41;;;;;;;5.60;3.10;;;;;;;14.13;40.17;93127.91;5540322;26;19993;-76
2024/04/20 08:22:07;;;;;;;4.60;2.30;;;;;;;14.30;37.74;93129.34;5541183;26;20221;-75
2024/04/20 08:24:33;;;;;;;5.20;2.63;;;;;;;14.41;37.81;93124.97;5540957;26;19989;-74
2024/04/20 08:27:01;;;;;;;8.00;2.88;;;;;;;14.54;39.41;93134.41;5540920;26;19992;-76
2024/04/20 08:29:26;;;;;;;3.45;2.33;;;;;;;14.71;37.46;93125.16;5540434;26;19989;-76
2024/04/20 08:31:52;;;;;;;4.82;2.85;;;;;;;14.75;38.08;93126.00;5540356;25;20177;-75
2024/04/20 08:34:18;;;;;;;4.95;2.65;;;;;;;14.83;36.95;93133.03;5539795;25;19985;-75
2024/04/20 08:36:45;;;;;;;7.90;3.15;;;;;;;14.92;36.89;93130.13;5540791;26;20028;-75
2024/04/20 08:39:10;;;;;;;4.82;2.50;;;;;;;15.07;37.12;93130.38;5540819;25;19990;-76
2024/04/20 08:41:45;;;;;;;4.82;2.53;;;;;;;15.25;36.96;93126.06;5508516;26;19997;-76
2024/04/20 08:44:19;;;;;;;3.25;1.98;;;;;;;15.45;36.28;93140.94;5541297;25;19985;-76
2024/04/20 08:46:48;;;;;;;9.85;2.63;;;;;;;15.58;35.52;93127.31;5540541;26;20017;-75
2024/04/20 08:49:18;;;;;;;4.68;2.50;;;;;;;15.75;34.41;93126.84;5508917;26;20192;-76
2024/04/20 08:51:45;;;;;;;3.95;2.03;;;;;;;15.86;33.93;93115.44;5540464;26;20036;-76
2024/04/20 08:54:15;;;;;;;5.63;2.20;;;;;;;16.00;35.30;93116.41;5540569;26;19983;-78
2024/04/20 08:56:45;;;;;;;6.45;2.60;;;;;;;15.88;34.20;93115.88;5540838;25;20067;-79
2024/04/20 08:59:11;;;;;;;6.13;2.78;;;;;;;15.79;34.78;93116.09;5509132;26;20153;-78
2024/04/20 09:01:41;;;;;;;5.32;2.63;;;;;;;15.49;34.62;93121.41;5541288;25;20041;-79
2024/04/20 09:04:09;;;;;;;4.25;2.72;;;;;;;15.37;32.92;93112.44;5540675;26;20122;-78
2024/04/20 09:06:35;;;;;;;5.90;2.38;;;;;;;15.21;34.12;93109.88;5540264;25;19986;-77
2024/04/20 09:09:03;;;;;;;4.65;2.75;;;;;;;15.13;35.53;93107.47;5508795;26;20597;-78
2024/04/20 09:11:30;;;;;;;8.82;2.50;;;;;;;15.11;36.26;93109.72;5508646;25;20017;-78
2024/04/20 09:13:58;;;;;;;5.07;1.90;;;;;;;15.26;36.32;93111.50;5540101;26;19982;-77
2024/04/20 09:16:24;;;;;;;9.65;2.75;;;;;;;15.35;35.62;93111.25;5540056;25;19985;-77
2024/04/20 09:18:49;;;;;;;7.85;2.00;;;;;;;15.37;36.27;93106.31;5540425;25;20040;-76
2024/04/20 09:21:15;;;;;;;7.40;2.65;;;;;;;15.40;34.95;93106.34;5540325;26;19989;-78
2024/04/20 09:23:43;;;;;;;14.50;3.28;;;;;;;15.50;35.92;93104.19;5540125;25;19996;-79
2024/04/20 09:26:17;;;;;;;6.63;2.95;;;;;;;15.48;34.24;93109.91;5539894;26;19996;-76
2024/04/20 09:28:57;;;;;;;5.07;2.33;;;;;;;15.22;34.98;93105.28;5539813;25;20013;-81
2024/04/20 09:31:25;;;;;;;9.30;2.80;;;;;;;15.40;35.88;93111.69;5539893;25;20061;-75
2024/04/20 09:33:51;;;;;;;8.82;2.60;;;;;;;15.47;34.73;93105.69;5507708;26;20216;-77
2024/04/20 09:36:16;;;;;;;4.78;2.75;;;;;;;15.30;35.00;93104.25;5539537;25;19993;-77
2024/04/20 09:38:42;;;;;;;8.77;2.40;;;;;;;15.40;34.96;93108.25;5537725;25;19994;-78
2024/04/20 09:41:08;;;;;;;15.45;2.30;;;;;;;15.46;34.00;93104.13;5537479;25;19989;-78
2024/04/20 09:43:36;;;;;;;4.40;2.70;;;;;;;15.59;34.61;93099.31;5538036;26;19981;-78
2024/04/20 09:46:03;;;;;;;3.85;2.70;;;;;;;15.73;34.24;93102.22;5539204;25;19985;-78
2024/04/20 09:48:31;;;;;;;3.85;2.55;;;;;;;15.87;34.42;93106.25;5537295;26;19993;-78
2024/04/20 09:51:11;;;;;;;7.05;2.40;;;;;;;16.11;33.79;93099.63;5535931;25;20001;-78
2024/04/20 09:53:39;;;;;;;5.10;3.13;;;;;;;16.12;33.30;93093.09;5536751;25;19985;-78
2024/04/20 09:56:07;;;;;;;5.00;2.80;;;;;;;16.15;33.89;93095.06;5536969;26;20189;-78
2024/04/20 09:58:35;;;;;;;8.88;2.88;;;;;;;16.28;32.56;93101.72;5537758;26;19994;-77
2024/04/20 10:01:00;;;;;;;4.82;2.70;;;;;;;16.10;32.03;93101.56;5538630;26;19985;-78
2024/04/20 10:03:27;;;;;;;4.57;2.60;;;;;;;15.87;33.18;93095.50;5538966;25;20041;-78
2024/04/20 10:05:55;;;;;;;5.03;2.67;;;;;;;15.71;33.22;93098.31;5539179;25;19981;-78
2024/04/20 10:08:21;;;;;;;5.22;2.45;;;;;;;15.71;33.16;93093.72;5538917;26;19996;-77
2024/04/20 10:10:47;;;;;;;4.50;2.33;;;;;;;15.68;33.63;93093.69;5538367;25;20089;-78
2024/04/20 10:13:17;;;;;;;5.93;2.97;;;;;;;15.90;34.21;93089.41;5537987;26;20018;-78
2024/04/20 10:15:47;;;;;;;6.13;3.22;;;;;;;16.09;33.12;93086.53;5538384;26;19997;-78
2024/04/20 10:18:12;;;;;;;7.30;3.30;;;;;;;16.08;32.38;93081.53;5539046;25;20001;-78
2024/04/20 10:20:38;;;;;;;4.15;2.67;;;;;;;16.08;32.75;93084.22;5539224;25;20118;-78
2024/04/20 10:23:20;;;;;;;5.57;3.38;;;;;;;16.03;32.62;93082.63;5538985;25;20081;-78
2024/04/20 10:25:50;;;;;;;8.27;2.47;;;;;;;16.15;33.08;93084.31;5539251;26;19985;-78
2024/04/20 10:28:32;;;;;;;5.38;3.50;;;;;;;16.11;31.93;93073.50;5539713;25;19997;-77
2024/04/20 10:30:59;;;;;;;7.35;2.50;;;;;;;16.20;33.18;93076.72;5539441;25;20113;-77
2024/04/20 10:33:30;;;;;;;6.60;2.58;;;;;;;16.28;31.63;93077.53;5539170;26;19997;-78
2024/04/20 10:36:02;;;;;;;4.22;2.38;;;;;;;16.25;31.84;93070.22;5539138;25;19996;-77
2024/04/20 10:38:33;;;;;;;5.25;3.00;;;;;;;16.19;32.13;93069.75;5539254;25;20177;-78
2024/04/20 10:41:21;;;;;;;15.63;3.63;;;;;;;16.44;33.24;93069.25;5537870;25;19985;-77
2024/04/20 10:43:47;;;;;;;5.55;2.35;;;;;;;16.68;32.23;93072.56;5539268;26;20049;-77
2024/04/20 10:46:17;;;;;;;4.20;2.90;;;;;;;16.69;30.63;93064.13;5539346;25;19997;-77
2024/04/20 10:48:42;;;;;;;5.90;2.55;;;;;;;16.60;31.32;93058.28;5539052;26;19985;-77
2024/04/20 10:51:11;;;;;;;4.40;2.47;;;;;;;16.31;32.58;93059.91;5538940;26;19988;-78
2024/04/20 10:53:40;;;;;;;8.18;2.00;;;;;;;16.53;32.40;93061.69;5538969;25;20082;-78
2024/04/20 10:56:08;;;;;;;3.80;2.20;;;;;;;16.70;31.42;93065.66;5538660;25;19989;-78
2024/04/20 10:58:37;;;;;;;18.33;3.15;;;;;;;16.94;31.11;93053.59;5507382;26;19982;-78
2024/04/20 11:01:03;;;;;;;4.18;2.50;;;;;;;17.21;30.95;93061.50;5538625;25;20005;-77
2024/04/20 11:03:31;;;;;;;13.82;2.97;;;;;;;17.45;30.44;93065.50;5538187;25;19981;-77
2024/04/20 11:05:58;;;;;;;6.32;2.55;;;;;;;17.62;29.87;93058.66;5538252;26;20080;-77
2024/04/20 11:08:24;;;;;;;3.75;2.60;;;;;;;17.76;30.66;93057.97;5538478;26;19996;-77
2024/04/20 11:11:05;;;;;;;7.85;3.05;;;;;;;17.83;28.62;93052.66;5538307;25;19985;-77
2024/04/20 11:13:32;;;;;;;5.95;2.50;;;;;;;17.60;28.33;93053.66;5538300;25;20102;-77
2024/04/20 11:15:58;;;;;;;7.55;3.05;;;;;;;17.47;29.33;93040.91;5538108;25;20129;-77
2024/04/20 11:18:24;;;;;;;4.70;2.85;;;;;;;17.30;29.75;93048.50;5538269;25;20009;-77
2024/04/20 11:20:50;;;;;;;4.93;2.88;;;;;;;17.19;30.02;93047.63;5506245;26;19990;-77
2024/04/20 11:23:16;;;;;;;8.45;2.45;;;;;;;17.09;30.11;93048.34;5538617;26;20053;-77
2024/04/20 11:25:55;;;;;;;12.02;2.00;;;;;;;17.27;31.16;93054.63;5537974;25;20093;-78
2024/04/20 11:28:24;;;;;;;6.10;2.47;;;;;;;17.41;29.95;93045.84;5538128;26;20000;-78
2024/04/20 11:30:50;;;;;;;4.88;2.78;;;;;;;17.52;30.22;93057.44;5538056;25;19990;-78
2024/04/20 11:33:17;;;;;;;4.22;2.33;;;;;;;17.42;29.22;93053.56;5538035;25;19989;-78